createdAt,value
2023-03-21T00:34:15.993Z,18.90
2023-03-21T00:34:31.761Z,20.30
2023-03-21T00:35:53.641Z,19.00
2023-03-21T00:36:21.855Z,21.20
2023-03-21T00:37:21.841Z,21.80
2023-03-21T00:38:21.840Z,23.20
2023-03-21T00:39:21.705Z,17.90
2023-03-21T00:40:29.444Z,19.60
2023-03-21T00:41:39.214Z,20.50
2023-03-21T00:42:21.757Z,21.20
2023-03-21T00:43:21.757Z,18.40
2023-03-21T00:44:21.744Z,19.30
2023-03-21T00:45:21.756Z,20.70
2023-03-21T00:46:23.307Z,20.40
2023-03-21T00:47:23.598Z,20.80
2023-03-21T00:48:21.696Z,20.70
2023-03-21T00:49:21.789Z,18.80
2023-03-21T00:50:21.697Z,22.40
2023-03-21T00:51:21.599Z,18.80
2023-03-21T00:52:34.154Z,20.90
2023-03-21T00:53:21.570Z,23.80
2023-03-21T00:54:21.658Z,20.50
2023-03-21T00:55:21.578Z,21.40
2023-03-21T00:56:21.576Z,21.40
2023-03-21T00:57:29.293Z,20.10
2023-03-21T00:58:21.571Z,21.10
2023-03-21T00:59:21.391Z,19.80
2023-03-21T01:00:21.522Z,21.30
2023-03-21T01:01:21.469Z,22.70
2023-03-21T01:02:21.591Z,20.20
2023-03-21T01:03:25.152Z,24.20
2023-03-21T01:04:21.563Z,23.20
2023-03-21T01:05:21.275Z,20.20
2023-03-21T01:06:21.527Z,24.50
2023-03-21T01:07:21.476Z,22.50
2023-03-21T01:08:26.831Z,25.00
2023-03-21T01:09:21.527Z,21.20
2023-03-21T01:10:21.456Z,21.40
2023-03-21T01:11:21.498Z,24.60
2023-03-21T01:12:21.451Z,25.80
2023-03-21T01:13:21.414Z,20.90
2023-03-21T01:14:23.280Z,22.40
2023-03-21T01:15:21.414Z,24.40
2023-03-21T01:16:21.389Z,21.00
2023-03-21T01:17:21.471Z,24.30
2023-03-21T01:18:21.259Z,25.30
2023-03-21T01:19:27.545Z,22.50
2023-03-21T01:20:21.457Z,22.80
2023-03-21T01:21:21.314Z,25.20
2023-03-21T01:22:21.334Z,24.70
2023-03-21T01:23:21.297Z,25.40
2023-03-21T01:24:21.295Z,25.50
2023-03-21T01:25:22.639Z,26.90
2023-03-21T01:26:21.100Z,24.40
2023-03-21T01:27:21.306Z,21.20
2023-03-21T01:28:21.302Z,26.00
2023-03-21T01:29:21.195Z,25.50
2023-03-21T01:30:23.995Z,26.20
2023-03-21T01:31:21.273Z,25.20
2023-03-21T01:32:21.159Z,24.30
2023-03-21T01:33:21.241Z,22.30
2023-03-21T01:34:21.087Z,24.90
2023-03-21T01:35:21.085Z,24.30
2023-03-21T01:36:23.157Z,24.30
2023-03-21T01:37:20.989Z,26.30
2023-03-21T01:38:21.096Z,24.00
2023-03-21T01:39:21.104Z,22.40
2023-03-21T01:40:21.121Z,24.10
2023-03-21T01:41:21.944Z,23.80
2023-03-21T01:42:21.143Z,25.00
2023-03-21T01:43:21.070Z,23.30
2023-03-21T01:44:21.092Z,21.00
2023-03-21T01:45:21.010Z,23.80
2023-03-21T01:46:21.209Z,22.10
2023-03-21T01:47:21.101Z,22.30
2023-03-21T01:48:21.094Z,22.10
2023-03-21T01:49:21.027Z,21.20
2023-03-21T01:50:20.967Z,22.80
2023-03-21T01:51:21.050Z,24.50
2023-03-21T01:52:35.286Z,23.80
2023-03-21T01:53:21.139Z,20.50
2023-03-21T01:54:20.881Z,23.00
2023-03-21T01:55:21.004Z,22.50
2023-03-21T01:56:20.939Z,21.40
2023-03-21T01:57:20.975Z,23.10
2023-03-21T01:58:21.017Z,22.10
2023-03-21T01:59:20.942Z,22.80
2023-03-21T02:00:21.038Z,19.80
2023-03-21T02:01:20.949Z,21.00
2023-03-21T02:02:20.901Z,24.50
2023-03-21T02:03:33.180Z,21.10
2023-03-21T02:04:20.903Z,21.80
2023-03-21T02:05:20.778Z,22.20
2023-03-21T02:06:20.843Z,21.10
2023-03-21T02:07:20.865Z,22.30
2023-03-21T02:08:22.277Z,22.80
2023-03-21T02:09:20.815Z,22.40
2023-03-21T02:10:20.758Z,22.20
2023-03-21T02:11:20.756Z,25.00
2023-03-21T02:12:20.853Z,21.20
2023-03-21T02:13:20.737Z,24.80
2023-03-21T02:14:28.866Z,25.00
2023-03-21T02:15:20.791Z,24.30
2023-03-21T02:16:20.841Z,24.30
2023-03-21T02:17:20.756Z,23.70
2023-03-21T02:18:20.686Z,24.50
2023-03-21T02:19:29.566Z,24.30
2023-03-21T02:20:20.652Z,23.70
2023-03-21T02:21:20.672Z,23.60
2023-03-21T02:22:20.767Z,25.40
2023-03-21T02:23:20.684Z,23.90
2023-03-21T02:24:20.686Z,24.60
2023-03-21T02:25:22.165Z,26.20
2023-03-21T02:26:21.361Z,26.60
2023-03-21T02:27:20.626Z,24.90
2023-03-21T02:28:20.650Z,28.40
2023-03-21T02:29:20.652Z,25.20
2023-03-21T02:30:28.810Z,26.60
2023-03-21T02:31:20.644Z,25.60
2023-03-21T02:32:35.001Z,25.10
2023-03-21T02:33:20.436Z,26.60
2023-03-21T02:34:20.568Z,27.40
2023-03-21T02:35:20.571Z,27.90
2023-03-21T02:36:20.603Z,26.50
2023-03-21T02:37:23.523Z,28.60
2023-03-21T02:38:20.476Z,30.10
2023-03-21T02:39:20.564Z,26.00
2023-03-21T02:40:20.482Z,29.00
2023-03-21T02:41:20.522Z,27.60
2023-03-21T02:42:20.320Z,29.20
2023-03-21T02:43:23.377Z,30.30
2023-03-21T02:44:20.462Z,27.60
2023-03-21T02:45:20.452Z,29.10
2023-03-21T02:46:22.604Z,29.40
2023-03-21T02:47:20.457Z,31.10
2023-03-21T02:48:29.180Z,27.30
2023-03-21T02:49:20.277Z,28.20
2023-03-21T02:50:20.182Z,29.60
2023-03-21T02:51:20.286Z,28.60
2023-03-21T02:52:35.500Z,29.50
2023-03-21T02:53:20.346Z,29.10
2023-03-21T02:54:34.940Z,28.20
2023-03-21T02:55:20.468Z,27.20
2023-03-21T02:56:20.386Z,28.10
2023-03-21T02:57:20.247Z,26.10
2023-03-21T02:58:20.242Z,26.50
2023-03-21T02:59:20.233Z,26.30
2023-03-21T03:00:20.133Z,27.30
2023-03-21T03:01:20.198Z,28.40
2023-03-21T03:02:20.188Z,31.30
2023-03-21T03:03:33.099Z,27.70
2023-03-21T03:04:20.213Z,31.70
2023-03-21T03:05:21.495Z,30.50
2023-03-21T03:06:20.222Z,28.60
2023-03-21T03:07:20.231Z,28.30
2023-03-21T03:08:24.038Z,28.10
2023-03-21T03:09:20.158Z,30.40
2023-03-21T03:10:20.307Z,26.60
2023-03-21T03:11:20.210Z,28.90
2023-03-21T03:12:20.164Z,27.30
2023-03-21T03:13:20.107Z,26.80
2023-03-21T03:15:20.153Z,30.90
2023-03-21T03:16:20.101Z,30.70
2023-03-21T03:17:20.117Z,28.00
2023-03-21T03:18:20.142Z,28.60
2023-03-21T03:19:20.056Z,30.70
2023-03-21T03:20:20.096Z,28.60
2023-03-21T03:21:19.935Z,30.20
2023-03-21T03:22:20.049Z,29.90
2023-03-21T03:23:20.074Z,28.30
2023-03-21T03:24:20.093Z,30.70
2023-03-21T03:25:32.404Z,27.00
2023-03-21T03:26:20.040Z,27.50
2023-03-21T03:27:20.123Z,27.20
2023-03-21T03:28:20.046Z,28.80
2023-03-21T03:29:20.046Z,29.40
2023-03-21T03:30:20.566Z,31.20
2023-03-21T03:31:20.959Z,28.10
2023-03-21T03:32:20.024Z,30.80
2023-03-21T03:33:19.959Z,28.80
2023-03-21T03:34:19.987Z,28.70
2023-03-21T03:35:19.934Z,30.50
2023-03-21T03:36:30.956Z,28.10
2023-03-21T03:37:20.038Z,32.80
2023-03-21T03:38:19.981Z,29.70
2023-03-21T03:39:19.848Z,28.40
2023-03-21T03:40:19.864Z,29.10
2023-03-21T03:41:19.888Z,27.50
2023-03-21T03:42:28.079Z,28.40
2023-03-21T03:43:19.815Z,29.90
2023-03-21T03:44:19.936Z,26.10
2023-03-21T03:45:19.823Z,29.30
2023-03-21T03:46:19.918Z,25.90
2023-03-21T03:47:31.952Z,28.00
2023-03-21T03:48:19.914Z,27.20
2023-03-21T03:49:19.901Z,29.00
2023-03-21T03:50:19.787Z,26.00
2023-03-21T03:51:19.712Z,26.10
2023-03-21T03:52:19.727Z,26.80
2023-03-21T03:53:19.827Z,26.50
2023-03-21T03:54:19.777Z,29.60
2023-03-21T03:55:19.720Z,29.50
2023-03-21T03:56:19.652Z,26.60
2023-03-21T03:57:19.662Z,30.80
2023-03-21T03:58:23.801Z,28.50
2023-03-21T03:59:19.718Z,29.50
2023-03-21T04:00:19.694Z,31.70
2023-03-21T04:01:19.664Z,28.50
2023-03-21T04:02:19.683Z,28.30
2023-03-21T04:03:19.676Z,28.70
2023-03-21T04:04:19.765Z,26.90
2023-03-21T04:05:19.629Z,26.80
2023-03-21T04:06:19.995Z,28.10
2023-03-21T04:07:19.574Z,25.50
2023-03-21T04:08:19.569Z,25.60
2023-03-21T04:09:23.538Z,30.40
2023-03-21T04:10:19.598Z,30.60
2023-03-21T04:11:19.630Z,28.40
2023-03-21T04:12:19.640Z,26.40
2023-03-21T04:13:19.587Z,26.60
2023-03-21T04:14:19.526Z,26.10
2023-03-21T04:15:19.540Z,29.80
2023-03-21T04:16:19.617Z,29.90
2023-03-21T04:17:19.555Z,29.80
2023-03-21T04:18:19.462Z,30.40
2023-03-21T04:19:19.302Z,25.10
2023-03-21T04:20:33.902Z,29.00
2023-03-21T04:21:19.469Z,29.30
2023-03-21T04:22:19.517Z,30.50
2023-03-21T04:23:19.479Z,27.30
2023-03-21T04:24:19.450Z,31.80
2023-03-21T04:25:32.513Z,30.30
2023-03-21T04:26:19.456Z,27.90
2023-03-21T04:27:19.342Z,31.30
2023-03-21T04:28:19.521Z,29.40
2023-03-21T04:29:19.192Z,28.40
2023-03-21T04:30:19.417Z,29.10
2023-03-21T04:31:25.660Z,28.70
2023-03-21T04:32:19.375Z,26.00
2023-03-21T04:33:19.360Z,28.80
2023-03-21T04:34:19.306Z,27.60
2023-03-21T04:35:19.126Z,30.70
2023-03-21T04:36:19.186Z,27.40
2023-03-21T04:37:19.365Z,28.20
2023-03-21T04:38:19.128Z,29.00
2023-03-21T04:39:19.043Z,27.20
2023-03-21T04:40:19.269Z,29.10
2023-03-21T04:41:19.259Z,29.40
2023-03-21T04:42:19.292Z,29.80
2023-03-21T04:43:19.121Z,26.60
2023-03-21T04:44:19.188Z,27.30
2023-03-21T04:45:19.062Z,28.30
2023-03-21T04:46:19.007Z,26.20
2023-03-21T04:47:18.963Z,26.70
2023-03-21T04:48:19.229Z,28.50
2023-03-21T04:49:18.998Z,28.80
2023-03-21T04:50:19.158Z,25.50
2023-03-21T04:51:18.956Z,24.60
2023-03-21T04:52:18.962Z,28.00
2023-03-21T04:53:19.107Z,24.90
2023-03-21T04:54:19.229Z,26.90
2023-03-21T04:55:19.003Z,27.10
2023-03-21T04:56:18.989Z,26.50
2023-03-21T04:57:18.880Z,25.60
2023-03-21T04:58:18.830Z,24.90
2023-03-21T04:59:18.949Z,28.40
2023-03-21T05:00:18.915Z,27.80
2023-03-21T05:01:19.141Z,28.90
2023-03-21T05:02:18.820Z,27.40
2023-03-21T05:03:19.000Z,26.30
2023-03-21T05:04:19.035Z,24.00
2023-03-21T05:05:19.029Z,25.60
2023-03-21T05:06:18.974Z,27.20
2023-03-21T05:07:18.902Z,28.90
2023-03-21T05:08:18.925Z,24.50
2023-03-21T05:09:18.950Z,27.30
2023-03-21T05:10:18.970Z,25.70
2023-03-21T05:11:18.998Z,25.40
2023-03-21T05:12:18.873Z,27.90
2023-03-21T05:13:18.908Z,25.20
2023-03-21T05:14:18.820Z,24.90
2023-03-21T05:15:18.662Z,24.80
2023-03-21T05:16:18.794Z,24.60
2023-03-21T05:17:18.677Z,26.90
2023-03-21T05:18:18.789Z,26.00
2023-03-21T05:19:18.790Z,23.90
2023-03-21T05:20:18.741Z,23.20
2023-03-21T05:21:18.822Z,25.20
2023-03-21T05:22:18.761Z,24.50
2023-03-21T05:23:18.699Z,25.10
2023-03-21T05:24:18.676Z,25.40
2023-03-21T05:25:18.686Z,26.80
2023-03-21T05:26:18.701Z,26.40
2023-03-21T05:27:18.809Z,26.40
2023-03-21T05:28:18.761Z,26.80
2023-03-21T05:29:18.695Z,25.70
2023-03-21T05:30:18.697Z,24.40
2023-03-21T05:31:18.759Z,26.70
2023-03-21T05:32:18.525Z,29.70
2023-03-21T05:33:18.477Z,27.00
2023-03-21T05:34:18.669Z,27.20
2023-03-21T05:35:18.461Z,27.90
2023-03-21T05:36:18.526Z,26.10
2023-03-21T05:37:18.416Z,23.90
2023-03-21T05:38:18.430Z,25.10
2023-03-21T05:39:19.417Z,28.00
2023-03-21T05:40:18.417Z,27.10
2023-03-21T05:41:19.332Z,24.70
2023-03-21T05:42:18.459Z,27.10
2023-03-21T05:43:18.575Z,26.90
2023-03-21T05:44:18.392Z,24.80
2023-03-21T05:45:18.384Z,26.50
2023-03-21T05:46:18.511Z,29.00
2023-03-21T05:47:18.337Z,24.10
2023-03-21T05:48:18.549Z,27.20
2023-03-21T05:49:18.497Z,27.00
2023-03-21T05:50:18.317Z,27.20
2023-03-21T05:51:18.275Z,25.50
2023-03-21T05:52:18.315Z,26.40
2023-03-21T05:53:18.310Z,26.00
2023-03-21T05:54:18.370Z,25.90
2023-03-21T05:55:18.224Z,23.40
2023-03-21T05:56:18.259Z,24.60
2023-03-21T05:57:18.386Z,24.70
2023-03-21T05:58:18.397Z,26.30
2023-03-21T05:59:18.491Z,28.30
2023-03-21T06:00:18.328Z,27.60
2023-03-21T06:01:18.354Z,28.40
2023-03-21T06:02:18.326Z,29.60
2023-03-21T06:03:18.285Z,25.90
2023-03-21T06:04:18.360Z,26.10
2023-03-21T06:05:18.406Z,28.30
2023-03-21T06:06:18.251Z,26.40
2023-03-21T06:07:18.243Z,27.40
2023-03-21T06:08:18.253Z,25.30
2023-03-21T06:09:18.288Z,29.30
2023-03-21T06:10:18.120Z,29.70
2023-03-21T06:11:18.053Z,26.90
2023-03-21T06:12:18.249Z,27.40
2023-03-21T06:13:18.081Z,28.70
2023-03-21T06:14:18.342Z,30.00
2023-03-21T06:15:18.077Z,27.40
2023-03-21T06:16:18.224Z,28.40
2023-03-21T06:17:18.105Z,29.00
2023-03-21T06:18:18.226Z,26.90
2023-03-21T06:19:18.169Z,27.30
2023-03-21T06:20:18.184Z,26.20
2023-03-21T06:21:18.279Z,27.50
2023-03-21T06:22:18.137Z,28.00
2023-03-21T06:23:18.316Z,28.30
2023-03-21T06:24:17.918Z,27.00
2023-03-21T06:25:17.929Z,27.70
2023-03-21T06:26:17.983Z,27.00
2023-03-21T06:27:17.903Z,29.60
2023-03-21T06:28:18.064Z,27.40
2023-03-21T06:29:18.075Z,30.20
2023-03-21T06:30:18.059Z,30.30
2023-03-21T06:31:18.186Z,28.30
2023-03-21T06:32:18.109Z,30.10
2023-03-21T06:33:17.968Z,28.00
2023-03-21T06:34:17.846Z,27.10
2023-03-21T06:35:17.820Z,34.10
2023-03-21T06:36:17.969Z,26.10
2023-03-21T06:37:17.971Z,26.60
2023-03-21T06:38:17.996Z,27.70
2023-03-21T06:39:17.882Z,27.40
2023-03-21T06:40:17.895Z,29.60
2023-03-21T06:41:17.920Z,30.20
2023-03-21T06:42:17.914Z,26.20
2023-03-21T06:43:17.910Z,28.60
2023-03-21T06:44:18.007Z,27.20
2023-03-21T06:45:17.872Z,27.00
2023-03-21T06:46:17.922Z,27.90
2023-03-21T06:47:17.880Z,27.10
2023-03-21T06:48:17.964Z,28.70
2023-03-21T06:49:17.795Z,27.80
2023-03-21T06:50:17.786Z,26.60
2023-03-21T06:51:17.843Z,28.60
2023-03-21T06:52:17.828Z,26.10
2023-03-21T06:53:17.817Z,26.80
2023-03-21T06:54:17.810Z,27.10
2023-03-21T06:55:17.812Z,26.60
2023-03-21T06:56:17.736Z,27.30
2023-03-21T06:57:17.749Z,25.70
2023-03-21T06:58:17.746Z,27.20
2023-03-21T06:59:17.755Z,28.20
2023-03-21T07:00:17.754Z,29.20
2023-03-21T07:01:17.818Z,28.60
2023-03-21T07:02:17.702Z,26.80
2023-03-21T07:03:17.776Z,27.70
2023-03-21T07:04:17.736Z,25.60
2023-03-21T07:05:17.765Z,23.70
2023-03-21T07:06:17.723Z,27.80
2023-03-21T07:07:17.670Z,25.70
2023-03-21T07:08:17.680Z,26.20
2023-03-21T07:09:17.622Z,28.20
2023-03-21T07:10:17.634Z,27.00
2023-03-21T07:11:17.701Z,27.20
2023-03-21T07:12:17.609Z,25.70
2023-03-21T07:13:17.764Z,28.60
2023-03-21T07:14:17.611Z,26.50
2023-03-21T07:15:17.605Z,28.00
2023-03-21T07:16:17.586Z,25.40
2023-03-21T07:17:17.592Z,26.60
2023-03-21T07:18:17.601Z,26.30
2023-03-21T07:19:17.621Z,27.50
2023-03-21T07:20:17.625Z,25.70
2023-03-21T07:21:17.624Z,28.00
2023-03-21T07:22:17.529Z,27.80
2023-03-21T07:23:17.585Z,27.40
2023-03-21T07:24:17.559Z,29.30
2023-03-21T07:25:17.637Z,24.50
2023-03-21T07:26:17.446Z,27.50
2023-03-21T07:27:17.498Z,26.50
2023-03-21T07:28:17.522Z,29.40
2023-03-21T07:29:17.562Z,28.00
2023-03-21T07:30:17.400Z,24.30
2023-03-21T07:31:17.492Z,27.90
2023-03-21T07:32:17.378Z,26.20
2023-03-21T07:33:17.404Z,26.60
2023-03-21T07:34:17.490Z,25.40
2023-03-21T07:35:17.397Z,24.30
2023-03-21T07:36:17.423Z,26.60
2023-03-21T07:37:17.390Z,24.30
2023-03-21T07:38:17.457Z,25.80
2023-03-21T07:39:17.352Z,23.50
2023-03-21T07:40:17.354Z,26.10
2023-03-21T07:41:17.413Z,26.50
2023-03-21T07:42:17.399Z,24.70
2023-03-21T07:44:17.293Z,26.40
2023-03-21T07:45:19.295Z,25.00
2023-03-21T07:46:17.305Z,23.50
2023-03-21T07:47:17.277Z,27.40
2023-03-21T07:48:17.365Z,25.80
2023-03-21T07:49:17.224Z,28.30
2023-03-21T07:50:17.187Z,23.80
2023-03-21T07:51:17.314Z,24.10
2023-03-21T07:52:17.206Z,26.10
2023-03-21T07:53:17.177Z,24.30
2023-03-21T07:54:17.185Z,27.60
2023-03-21T07:55:17.232Z,23.40
2023-03-21T07:56:17.143Z,23.90
2023-03-21T07:57:17.202Z,26.60
2023-03-21T07:58:17.252Z,24.10
2023-03-21T07:59:17.158Z,24.00
2023-03-21T08:00:17.150Z,24.60
2023-03-21T08:01:17.081Z,23.60
2023-03-21T08:02:17.238Z,26.50
2023-03-21T08:03:17.155Z,27.50
2023-03-21T08:04:17.137Z,23.60
2023-03-21T08:05:17.035Z,26.80
2023-03-21T08:06:17.074Z,24.90
2023-03-21T08:07:16.940Z,24.70
2023-03-21T08:08:17.089Z,24.80
2023-03-21T08:09:16.921Z,23.60
2023-03-21T08:10:17.049Z,26.10
2023-03-21T08:11:17.025Z,22.60
2023-03-21T08:12:17.000Z,24.40
2023-03-21T08:13:17.058Z,22.00
2023-03-21T08:14:16.948Z,26.00
2023-03-21T08:15:17.012Z,25.00
2023-03-21T08:16:16.967Z,24.00
2023-03-21T08:17:16.951Z,21.80
2023-03-21T08:18:16.979Z,23.70
2023-03-21T08:19:16.977Z,21.40
2023-03-21T08:20:16.838Z,24.70
2023-03-21T08:21:16.848Z,18.90
2023-03-21T08:22:16.848Z,25.00
2023-03-21T08:23:16.838Z,24.10
2023-03-21T08:24:16.826Z,21.60
2023-03-21T08:25:16.962Z,23.00
2023-03-21T08:26:16.777Z,22.60
2023-03-21T08:27:16.758Z,22.70
2023-03-21T08:28:16.655Z,23.80
2023-03-21T08:29:16.855Z,21.60
2023-03-21T08:30:16.822Z,19.00
2023-03-21T08:31:16.890Z,21.70
2023-03-21T08:32:16.726Z,22.10
2023-03-21T08:33:16.742Z,18.30
2023-03-21T08:34:16.750Z,20.90
2023-03-21T08:35:16.757Z,20.80
2023-03-21T08:36:16.932Z,25.60
2023-03-21T08:37:16.571Z,20.30
2023-03-21T08:38:16.627Z,19.60
2023-03-21T08:39:16.738Z,22.90
2023-03-21T08:40:16.824Z,21.00
2023-03-21T08:41:16.800Z,19.20
2023-03-21T08:42:16.714Z,18.60
2023-03-21T08:43:16.694Z,19.40
2023-03-21T08:44:16.654Z,17.20
2023-03-21T08:45:16.626Z,18.50
2023-03-21T08:46:16.646Z,18.30
2023-03-21T08:47:16.613Z,17.00
2023-03-21T08:48:16.624Z,20.40
2023-03-21T08:49:16.569Z,18.20
2023-03-21T08:50:16.545Z,19.80
2023-03-21T08:51:16.668Z,20.00
2023-03-21T08:52:16.493Z,18.30
2023-03-21T08:53:16.616Z,18.20
2023-03-21T08:54:16.555Z,19.60
2023-03-21T08:55:16.590Z,19.10
2023-03-21T08:56:16.565Z,19.30
2023-03-21T08:57:16.633Z,20.00
2023-03-21T08:58:16.549Z,17.50
2023-03-21T08:59:16.556Z,19.30
2023-03-21T09:00:16.515Z,20.20
2023-03-21T09:01:16.409Z,18.30
2023-03-21T09:02:16.671Z,20.10
2023-03-21T09:03:16.532Z,17.90
2023-03-21T09:04:16.511Z,19.30
2023-03-21T09:05:16.417Z,21.40
2023-03-21T09:06:16.410Z,21.10
2023-03-21T09:07:16.474Z,23.40
2023-03-21T09:08:16.449Z,21.00
2023-03-21T09:09:16.426Z,19.40
2023-03-21T09:10:21.456Z,22.60
2023-03-21T09:11:16.439Z,19.60
2023-03-21T09:12:16.369Z,22.40
2023-03-21T09:13:16.354Z,22.50
2023-03-21T09:14:16.340Z,20.10
2023-03-21T09:15:16.411Z,21.60
2023-03-21T09:16:16.461Z,22.10
2023-03-21T09:17:16.307Z,21.10
2023-03-21T09:18:16.351Z,20.70
2023-03-21T09:19:16.292Z,21.40
2023-03-21T09:20:16.389Z,20.00
2023-03-21T09:21:16.308Z,20.00
2023-03-21T09:22:16.317Z,19.30
2023-03-21T09:23:16.357Z,22.30
2023-03-21T09:24:16.317Z,22.00
2023-03-21T09:25:16.305Z,22.30
2023-03-21T09:26:16.225Z,25.80
2023-03-21T09:27:16.294Z,21.30
2023-03-21T09:28:16.272Z,19.90
2023-03-21T09:29:16.195Z,18.90
2023-03-21T09:30:16.279Z,21.30
2023-03-21T09:31:16.296Z,21.20
2023-03-21T09:32:16.184Z,22.00
2023-03-21T09:33:16.185Z,24.30
2023-03-21T09:34:16.203Z,21.00
2023-03-21T09:35:16.225Z,21.20
2023-03-21T09:36:16.244Z,20.70
2023-03-21T09:37:16.080Z,22.10
2023-03-21T09:38:16.090Z,20.70
2023-03-21T09:39:16.112Z,22.40
2023-03-21T09:40:16.134Z,20.30
2023-03-21T09:41:16.120Z,21.00
2023-03-21T09:42:16.124Z,19.50
2023-03-21T09:43:16.126Z,23.00
2023-03-21T09:44:16.016Z,21.10
2023-03-21T09:45:16.030Z,22.60
2023-03-21T09:46:16.089Z,21.80
2023-03-21T09:47:16.098Z,21.60
2023-03-21T09:48:16.072Z,21.20
2023-03-21T09:49:15.991Z,22.20
2023-03-21T09:50:16.014Z,20.50
2023-03-21T09:51:16.019Z,22.10
2023-03-21T09:52:16.027Z,21.20
2023-03-21T09:53:15.948Z,23.20
2023-03-21T09:54:15.934Z,24.40
2023-03-21T09:55:15.926Z,21.30
2023-03-21T09:56:15.888Z,22.70
2023-03-21T09:57:16.099Z,21.60
2023-03-21T09:58:16.136Z,21.40
2023-03-21T09:59:15.871Z,23.10
2023-03-21T10:00:15.859Z,19.80
2023-03-21T10:01:15.936Z,22.70
2023-03-21T10:02:15.841Z,20.30
2023-03-21T10:03:16.023Z,23.50
2023-03-21T10:04:15.957Z,24.30
2023-03-21T10:05:15.846Z,21.70
2023-03-21T10:06:15.885Z,23.80
2023-03-21T10:07:15.845Z,22.70
2023-03-21T10:08:15.792Z,24.20
2023-03-21T10:09:15.879Z,23.90
2023-03-21T10:10:15.812Z,22.50
2023-03-21T10:11:15.826Z,21.70
2023-03-21T10:12:15.764Z,24.40
2023-03-21T10:13:16.009Z,22.70
2023-03-21T10:14:15.869Z,24.70
2023-03-21T10:15:15.730Z,23.20
2023-03-21T10:16:15.793Z,22.00
2023-03-21T10:17:15.729Z,22.20
2023-03-21T10:18:15.756Z,26.00
2023-03-21T10:19:15.790Z,21.90
2023-03-21T10:20:15.677Z,20.50
2023-03-21T10:21:29.211Z,18.30
2023-03-21T10:22:15.656Z,19.70
2023-03-21T10:23:15.685Z,22.90
2023-03-21T10:24:15.631Z,21.20
2023-03-21T10:25:15.673Z,22.00
2023-03-21T10:26:16.935Z,23.20
2023-03-21T10:27:15.634Z,21.00
2023-03-21T10:28:15.561Z,21.80
2023-03-21T10:29:15.658Z,20.60
2023-03-21T10:30:15.657Z,23.20
2023-03-21T10:31:15.741Z,20.00
2023-03-21T10:32:15.635Z,19.50
2023-03-21T10:33:15.655Z,19.70
2023-03-21T10:34:15.610Z,25.00
2023-03-21T10:35:15.639Z,21.30
2023-03-21T10:36:15.597Z,19.70
2023-03-21T10:37:15.527Z,20.10
2023-03-21T10:38:15.561Z,20.90
2023-03-21T10:39:15.505Z,22.10
2023-03-21T10:40:15.680Z,20.40
2023-03-21T10:41:15.514Z,21.10
2023-03-21T10:42:15.495Z,21.40
2023-03-21T10:43:15.602Z,18.30
2023-03-21T10:44:15.492Z,19.30
2023-03-21T10:45:15.453Z,20.40
2023-03-21T10:46:15.656Z,21.50
2023-03-21T10:47:15.725Z,18.50
2023-03-21T10:48:15.556Z,19.90
2023-03-21T10:49:15.393Z,22.10
2023-03-21T10:50:15.509Z,19.60
2023-03-21T10:51:15.386Z,20.00
2023-03-21T10:52:15.457Z,20.20
2023-03-21T10:53:15.359Z,18.90
2023-03-21T10:54:15.406Z,18.40
2023-03-21T10:55:15.389Z,20.90
2023-03-21T10:56:15.122Z,20.40
2023-03-21T10:57:15.367Z,21.40
2023-03-21T10:58:15.336Z,21.60
2023-03-21T10:59:15.177Z,20.80
2023-03-21T11:00:15.352Z,20.80
2023-03-21T11:01:15.272Z,31.30
2023-03-21T11:02:15.181Z,19.20
2023-03-21T11:03:15.109Z,20.00
2023-03-21T11:04:15.058Z,19.20
2023-03-21T11:05:15.300Z,18.10
2023-03-21T11:06:15.290Z,18.90
2023-03-21T11:07:15.195Z,18.30
2023-03-21T11:08:15.163Z,18.90
2023-03-21T11:09:15.108Z,17.90
2023-03-21T11:10:19.934Z,22.70
2023-03-21T11:11:15.023Z,20.10
2023-03-21T11:12:14.979Z,19.70
2023-03-21T11:13:15.108Z,17.70
2023-03-21T11:14:15.009Z,18.70
2023-03-21T11:15:15.232Z,16.40
2023-03-21T11:16:15.216Z,18.90
2023-03-21T11:17:14.958Z,17.00
2023-03-21T11:18:14.977Z,17.90
2023-03-21T11:19:14.936Z,20.30
2023-03-21T11:20:15.151Z,19.90
2023-03-21T11:21:15.006Z,20.30
2023-03-21T11:22:15.044Z,18.50
2023-03-21T11:23:15.067Z,18.00
2023-03-21T11:24:15.254Z,17.90
2023-03-21T11:25:14.997Z,19.70
2023-03-21T11:26:15.004Z,19.10
2023-03-21T11:27:15.007Z,19.60
2023-03-21T11:28:14.995Z,18.40
2023-03-21T11:29:14.974Z,17.20
2023-03-21T11:30:15.128Z,17.00
2023-03-21T11:31:14.881Z,16.50
2023-03-21T11:32:14.793Z,19.60
2023-03-21T11:33:14.819Z,20.20
2023-03-21T11:34:14.954Z,19.30
2023-03-21T11:35:14.751Z,16.90
2023-03-21T11:36:15.047Z,16.90
2023-03-21T11:37:14.779Z,20.10
2023-03-21T11:38:14.979Z,18.40
2023-03-21T11:39:14.926Z,17.00
2023-03-21T11:40:14.908Z,18.70
2023-03-21T11:41:14.822Z,19.60
2023-03-21T11:42:14.775Z,20.20
2023-03-21T11:43:14.680Z,16.60
2023-03-21T11:44:14.919Z,17.20
2023-03-21T11:45:14.719Z,19.00
2023-03-21T11:46:14.957Z,18.40
2023-03-21T11:47:14.671Z,18.40
2023-03-21T11:48:14.688Z,17.00
2023-03-21T11:49:14.787Z,19.20
2023-03-21T11:50:14.726Z,19.20
2023-03-21T11:51:14.895Z,18.20
2023-03-21T11:52:14.821Z,18.20
2023-03-21T11:53:14.829Z,18.90
2023-03-21T11:54:14.752Z,15.90
2023-03-21T11:55:14.574Z,15.90
2023-03-21T11:56:14.845Z,19.40
2023-03-21T11:57:14.598Z,17.30
2023-03-21T11:58:15.142Z,15.70
2023-03-21T11:59:14.799Z,16.10
2023-03-21T12:00:14.698Z,19.50
2023-03-21T12:01:14.535Z,17.50
2023-03-21T12:02:14.528Z,18.00
2023-03-21T12:03:14.676Z,17.70
2023-03-21T12:04:14.813Z,19.80
2023-03-21T12:05:14.608Z,17.60
2023-03-21T12:06:14.491Z,17.90
2023-03-21T12:07:14.484Z,16.50
2023-03-21T12:08:14.649Z,17.20
2023-03-21T12:09:14.658Z,18.10
2023-03-21T12:10:14.669Z,17.50
2023-03-21T12:11:14.609Z,19.20
2023-03-21T12:12:14.473Z,17.50
2023-03-21T12:13:14.501Z,16.50
2023-03-21T12:14:14.539Z,18.70
2023-03-21T12:15:14.564Z,17.10
2023-03-21T12:16:14.400Z,17.00
2023-03-21T12:17:14.467Z,19.10
2023-03-21T12:18:14.467Z,16.70
2023-03-21T12:19:14.342Z,17.30
2023-03-21T12:20:14.460Z,18.20
2023-03-21T12:21:14.384Z,16.70
2023-03-21T12:22:14.401Z,16.10
2023-03-21T12:23:14.487Z,17.80
2023-03-21T12:24:14.276Z,17.10
2023-03-21T12:25:14.268Z,16.90
2023-03-21T12:26:14.292Z,16.10
2023-03-21T12:27:14.257Z,16.10
2023-03-21T12:28:16.924Z,16.10
2023-03-21T12:29:14.235Z,15.40
2023-03-21T12:30:14.292Z,14.60
2023-03-21T12:31:14.260Z,16.50
2023-03-21T12:32:14.184Z,16.70
2023-03-21T12:33:14.149Z,16.30
2023-03-21T12:34:14.205Z,16.70
2023-03-21T12:35:14.338Z,15.30
2023-03-21T12:36:14.375Z,15.70
2023-03-21T12:37:14.252Z,15.30
2023-03-21T12:38:14.261Z,15.50
2023-03-21T12:39:14.129Z,16.00
2023-03-21T12:40:14.218Z,15.50
2023-03-21T12:41:14.147Z,13.90
2023-03-21T12:42:14.264Z,16.40
2023-03-21T12:43:14.283Z,15.20
2023-03-21T12:44:14.389Z,16.20
2023-03-21T12:45:15.791Z,17.80
2023-03-21T12:46:14.256Z,15.60
2023-03-21T12:47:14.277Z,14.50
2023-03-21T12:48:14.419Z,15.10
2023-03-21T12:49:14.211Z,17.50
2023-03-21T12:50:14.211Z,16.90
2023-03-21T12:51:14.280Z,15.90
2023-03-21T12:52:14.194Z,16.00
2023-03-21T12:53:14.199Z,15.00
2023-03-21T12:54:14.193Z,15.30
2023-03-21T12:55:14.190Z,14.30
2023-03-21T12:56:14.258Z,16.40
2023-03-21T12:57:14.202Z,14.40
2023-03-21T12:58:13.967Z,14.40
2023-03-21T12:59:13.948Z,14.60
2023-03-21T13:00:14.079Z,14.50
2023-03-21T13:01:14.180Z,14.80
2023-03-21T13:02:14.084Z,13.80
2023-03-21T13:03:14.163Z,13.80
2023-03-21T13:04:14.197Z,15.30
2023-03-21T13:05:13.875Z,13.90
2023-03-21T13:06:14.124Z,15.20
2023-03-21T13:07:14.061Z,14.20
2023-03-21T13:08:14.069Z,13.10
2023-03-21T13:09:14.077Z,12.40
2023-03-21T13:10:13.930Z,12.90
2023-03-21T13:11:13.977Z,12.60
2023-03-21T13:12:13.994Z,12.90
2023-03-21T13:13:14.019Z,13.20
2023-03-21T13:14:13.755Z,11.80
2023-03-21T13:15:23.251Z,12.50
2023-03-21T13:16:13.896Z,12.30
2023-03-21T13:17:14.095Z,13.10
2023-03-21T13:18:13.909Z,13.00
2023-03-21T13:19:13.866Z,12.20
2023-03-21T13:20:13.894Z,14.10
2023-03-21T13:21:13.720Z,11.90
2023-03-21T13:22:13.931Z,12.00
2023-03-21T13:23:13.885Z,12.30
2023-03-21T13:24:13.838Z,11.60
2023-03-21T13:25:13.651Z,13.70
2023-03-21T13:26:13.825Z,12.70
2023-03-21T13:27:13.758Z,12.20